Time;durP1;ratioP1;P1;durP2;ratioP2;P2;SDS_P1;SDS_P2;PMS_P1;PMS_P2;Temp;Humidity;BMP_temperature;BMP_pressure;BME280_temperature;BME280_humidity;BME280_pressure;Samples;Min_cycle;Max_cycle;Signal;HPM_P1;HPM_P2
2023/07/10 00:02:16;;;;;;;;;;;19.90;99.90;;;;;;5072059;28;20022;-49
2023/07/10 00:04:41;;;;;;;;;;;19.90;99.90;;;;;;5070261;28;19916;-49
2023/07/10 00:07:07;;;;;;;;;;;19.90;99.90;;;;;;5071019;28;19917;-51
2023/07/10 00:09:32;;;;;;;;;;;19.90;99.90;;;;;;5072159;28;20016;-50
2023/07/10 00:11:58;;;;;;;;;;;19.90;99.90;;;;;;5070909;28;19924;-52
2023/07/10 00:14:24;;;;;;;;;;;19.90;99.90;;;;;;5071906;28;20365;-51
2023/07/10 00:16:50;;;;;;;;;;;19.90;99.90;;;;;;5071814;28;19916;-53
2023/07/10 00:19:16;;;;;;;;;;;19.90;99.90;;;;;;5072063;28;20388;-51
2023/07/10 00:21:42;;;;;;;;;;;19.90;99.90;;;;;;5071897;28;20012;-50
2023/07/10 00:24:08;;;;;;;;;;;19.90;99.90;;;;;;5071625;28;20050;-50
2023/07/10 00:26:35;;;;;;;;;;;19.90;99.90;;;;;;5071539;28;19924;-49
2023/07/10 00:29:07;;;;;;;;;;;19.90;99.90;;;;;;5087436;28;19916;-49
2023/07/10 00:31:32;;;;;;;;;;;19.90;99.90;;;;;;5071849;28;19927;-49
2023/07/10 00:33:58;;;;;;;;;;;19.90;99.90;;;;;;5086864;28;19920;-52
2023/07/10 00:36:23;;;;;;;;;;;19.90;99.90;;;;;;5071575;28;19970;-52
2023/07/10 00:38:49;;;;;;;;;;;19.90;99.90;;;;;;5071683;28;19916;-48
2023/07/10 00:41:14;;;;;;;;;;;19.90;99.90;;;;;;5071038;28;19927;-49
2023/07/10 00:43:49;;;;;;;;;;;19.90;99.90;;;;;;5080096;28;19963;-50
2023/07/10 00:46:20;;;;;;;;;;;19.90;99.90;;;;;;5071007;28;19962;-52
2023/07/10 00:48:52;;;;;;;;;;;19.90;99.90;;;;;;5071057;28;20381;-53
2023/07/10 00:51:23;;;;;;;;;;;19.90;99.90;;;;;;5071271;28;20331;-49
2023/07/10 00:53:49;;;;;;;;;;;19.90;99.90;;;;;;5071185;28;19925;-50
2023/07/10 00:56:17;;;;;;;;;;;19.90;99.90;;;;;;5070693;28;19916;-48
2023/07/10 00:58:44;;;;;;;;;;;19.90;99.90;;;;;;5071288;28;19916;-51
2023/07/10 01:01:15;;;;;;;;;;;19.90;99.90;;;;;;5086639;28;19920;-50
2023/07/10 01:03:42;;;;;;;;;;;19.90;99.90;;;;;;5070973;28;19963;-48
2023/07/10 01:06:13;;;;;;;;;;;19.90;99.90;;;;;;5069623;28;19951;-53
2023/07/10 01:08:41;;;;;;;;;;;19.90;99.90;;;;;;5066556;28;19982;-48
2023/07/10 01:11:06;;;;;;;;;;;19.90;99.90;;;;;;5070718;28;20007;-49
2023/07/10 01:13:33;;;;;;;;;;;19.90;99.90;;;;;;5070532;28;19998;-50
2023/07/10 01:15:58;;;;;;;;;;;19.90;99.90;;;;;;5070269;28;19920;-49
2023/07/10 01:18:24;;;;;;;;;;;19.90;99.90;;;;;;5070950;28;19916;-54
2023/07/10 01:20:51;;;;;;;;;;;19.90;99.90;;;;;;5070376;28;19930;-53
2023/07/10 01:23:18;;;;;;;;;;;19.90;99.90;;;;;;5062307;28;19916;-50
2023/07/10 01:25:47;;;;;;;;;;;19.90;99.90;;;;;;5070151;28;20380;-50
2023/07/10 01:28:17;;;;;;;;;;;19.90;99.90;;;;;;5070591;28;19916;-49
2023/07/10 01:30:43;;;;;;;;;;;19.80;99.90;;;;;;5063591;28;20015;-51
2023/07/10 01:33:13;;;;;;;;;;;19.80;99.90;;;;;;5069780;28;19923;-50
2023/07/10 01:35:39;;;;;;;;;;;19.80;99.90;;;;;;5062160;28;19959;-52
2023/07/10 01:38:04;;;;;;;;;;;19.80;99.90;;;;;;5070604;28;19961;-51
2023/07/10 01:40:35;;;;;;;;;;;19.80;99.90;;;;;;5070445;28;20391;-51
2023/07/10 01:43:00;;;;;;;;;;;19.80;99.90;;;;;;5070570;28;19920;-50
2023/07/10 01:45:27;;;;;;;;;;;19.80;99.90;;;;;;5085636;28;19939;-52
2023/07/10 01:47:53;;;;;;;;;;;19.80;99.90;;;;;;5069899;28;19916;-49
2023/07/10 01:50:19;;;;;;;;;;;19.70;99.90;;;;;;5070769;28;19920;-48
2023/07/10 01:52:45;;;;;;;;;;;19.70;99.90;;;;;;5070345;28;19924;-49
2023/07/10 01:55:12;;;;;;;;;;;19.70;99.90;;;;;;5069562;28;19924;-53
2023/07/10 01:57:37;;;;;;;;;;;19.70;99.90;;;;;;5070723;28;19923;-50
2023/07/10 02:00:04;;;;;;;;;;;19.70;99.90;;;;;;5070335;28;20026;-49
2023/07/10 02:02:30;;;;;;;;;;;19.70;99.90;;;;;;5069971;28;20274;-51
2023/07/10 02:04:55;;;;;;;;;;;19.70;99.90;;;;;;5070312;28;19923;-49
2023/07/10 02:07:21;;;;;;;;;;;19.70;99.90;;;;;;5070580;28;20301;-48
2023/07/10 02:09:46;;;;;;;;;;;19.70;99.90;;;;;;5070411;28;20004;-52
2023/07/10 02:12:12;;;;;;;;;;;19.70;99.90;;;;;;5070087;28;19931;-49
2023/07/10 02:14:37;;;;;;;;;;;19.70;99.90;;;;;;5070057;28;19924;-50
2023/07/10 02:17:03;;;;;;;;;;;19.70;99.90;;;;;;5069367;28;19916;-54
2023/07/10 02:19:28;;;;;;;;;;;19.70;99.90;;;;;;5070169;28;20413;-53
2023/07/10 02:21:54;;;;;;;;;;;19.70;99.90;;;;;;5070230;28;19922;-50
2023/07/10 02:24:19;;;;;;;;;;;19.70;99.90;;;;;;5069736;28;20299;-52
2023/07/10 02:26:45;;;;;;;;;;;19.70;99.90;;;;;;5068124;28;19956;-52
2023/07/10 02:29:10;;;;;;;;;;;19.70;99.90;;;;;;5069341;28;20066;-48
2023/07/10 02:31:36;;;;;;;;;;;19.60;99.90;;;;;;5068185;28;19974;-51
2023/07/10 02:34:01;;;;;;;;;;;19.70;99.90;;;;;;5068969;28;20304;-49
2023/07/10 02:36:28;;;;;;;;;;;19.70;99.90;;;;;;5072426;28;20305;-52
2023/07/10 02:38:54;;;;;;;;;;;19.60;99.90;;;;;;5073679;28;20098;-48
2023/07/10 02:41:19;;;;;;;;;;;19.70;99.90;;;;;;5073861;28;20389;-50
2023/07/10 02:43:45;;;;;;;;;;;19.70;99.90;;;;;;5073705;28;20273;-49
2023/07/10 02:46:10;;;;;;;;;;;19.70;99.90;;;;;;5072702;28;20282;-49
2023/07/10 02:48:36;;;;;;;;;;;19.70;99.90;;;;;;5073700;28;20148;-49
2023/07/10 02:51:01;;;;;;;;;;;19.60;99.90;;;;;;5073679;28;19921;-53
2023/07/10 02:53:27;;;;;;;;;;;19.60;99.90;;;;;;5074040;28;19924;-52
2023/07/10 02:55:52;;;;;;;;;;;19.60;99.90;;;;;;5073191;28;20450;-48
2023/07/10 02:58:18;;;;;;;;;;;19.60;99.90;;;;;;5065798;28;19920;-50
2023/07/10 03:00:43;;;;;;;;;;;19.60;99.90;;;;;;5073408;28;19930;-52
2023/07/10 03:03:09;;;;;;;;;;;19.60;99.90;;;;;;5073679;28;19916;-48
2023/07/10 03:05:34;;;;;;;;;;;19.60;99.90;;;;;;5073250;28;19917;-53
2023/07/10 03:08:00;;;;;;;;;;;19.60;99.90;;;;;;5065121;28;19916;-54
2023/07/10 03:10:25;;;;;;;;;;;19.60;99.90;;;;;;5073364;28;19923;-56
2023/07/10 03:12:51;;;;;;;;;;;19.60;99.90;;;;;;5073376;28;20003;-56
2023/07/10 03:15:17;;;;;;;;;;;19.50;99.90;;;;;;5072228;28;20446;-55
2023/07/10 03:17:42;;;;;;;;;;;19.50;99.90;;;;;;5073623;28;19958;-56
2023/07/10 03:20:09;;;;;;;;;;;19.50;99.90;;;;;;5073647;28;19921;-56
2023/07/10 03:22:34;;;;;;;;;;;19.50;99.90;;;;;;5073367;28;19920;-56
2023/07/10 03:25:00;;;;;;;;;;;19.50;99.90;;;;;;5072616;28;19916;-51
2023/07/10 03:27:27;;;;;;;;;;;19.50;99.90;;;;;;5072869;28;19923;-54
2023/07/10 03:29:53;;;;;;;;;;;19.50;99.90;;;;;;5072622;28;20385;-56
2023/07/10 03:32:18;;;;;;;;;;;19.50;99.90;;;;;;5072659;28;19921;-54
2023/07/10 03:34:44;;;;;;;;;;;19.50;99.90;;;;;;5072703;28;19916;-54
2023/07/10 03:37:09;;;;;;;;;;;19.50;99.90;;;;;;5072754;28;19916;-54
2023/07/10 03:39:35;;;;;;;;;;;19.50;99.90;;;;;;5088612;28;19967;-54
2023/07/10 03:42:01;;;;;;;;;;;19.40;99.90;;;;;;5073106;28;20396;-55
2023/07/10 03:44:27;;;;;;;;;;;19.50;99.90;;;;;;5072045;28;19916;-52
2023/07/10 03:46:52;;;;;;;;;;;19.50;99.90;;;;;;5071668;28;20032;-55
2023/07/10 03:49:18;;;;;;;;;;;19.40;99.90;;;;;;5072827;28;19928;-54
2023/07/10 03:51:43;;;;;;;;;;;19.40;99.90;;;;;;5072879;28;20278;-52
2023/07/10 03:54:10;;;;;;;;;;;19.40;99.90;;;;;;5072317;28;19962;-54
2023/07/10 03:56:35;;;;;;;;;;;19.40;99.90;;;;;;5072228;28;20385;-55
2023/07/10 03:59:01;;;;;;;;;;;19.40;99.90;;;;;;5070917;28;19922;-55
2023/07/10 04:01:27;;;;;;;;;;;19.40;99.90;;;;;;5072365;28;20011;-55
2023/07/10 04:03:52;;;;;;;;;;;19.40;99.90;;;;;;5072408;28;19916;-55
2023/07/10 04:06:18;;;;;;;;;;;19.40;99.90;;;;;;5072049;28;20289;-53
2023/07/10 04:08:45;;;;;;;;;;;19.30;99.90;;;;;;5072299;28;19923;-54
2023/07/10 04:11:11;;;;;;;;;;;19.30;99.90;;;;;;5071949;28;20388;-53
2023/07/10 04:13:37;;;;;;;;;;;19.30;99.90;;;;;;5087485;28;19918;-55
2023/07/10 04:16:23;;;;;;;;;;;19.40;99.90;;;;;;5071670;28;19923;-55
2023/07/10 04:18:51;;;;;;;;;;;19.40;99.90;;;;;;5071708;28;19965;-55
2023/07/10 04:21:16;;;;;;;;;;;19.40;99.90;;;;;;5071922;28;19916;-53
2023/07/10 04:23:42;;;;;;;;;;;19.40;99.90;;;;;;5087839;28;19920;-54
2023/07/10 04:26:34;;;;;;;;;;;19.30;99.90;;;;;;5070950;28;19916;-56
2023/07/10 04:29:00;;;;;;;;;;;19.30;99.90;;;;;;5068447;28;19916;-54
2023/07/10 04:31:26;;;;;;;;;;;19.30;99.90;;;;;;5071726;28;19926;-53
2023/07/10 04:33:52;;;;;;;;;;;19.30;99.90;;;;;;5071513;28;19917;-55
2023/07/10 04:36:18;;;;;;;;;;;19.30;99.90;;;;;;5071460;28;19916;-53
2023/07/10 04:38:44;;;;;;;;;;;19.30;99.90;;;;;;5071476;28;19923;-48
2023/07/10 04:41:11;;;;;;;;;;;19.30;99.90;;;;;;5071890;28;19916;-56
2023/07/10 04:43:36;;;;;;;;;;;19.30;99.90;;;;;;5071532;28;20373;-53
2023/07/10 04:46:04;;;;;;;;;;;19.30;99.90;;;;;;5070954;28;19923;-49
2023/07/10 04:48:30;;;;;;;;;;;19.30;99.90;;;;;;5071073;28;19916;-52
2023/07/10 04:50:55;;;;;;;;;;;19.30;99.90;;;;;;5086389;28;20306;-54
2023/07/10 04:53:22;;;;;;;;;;;19.30;99.90;;;;;;5070261;28;20050;-51
2023/07/10 04:55:48;;;;;;;;;;;19.30;99.90;;;;;;5070661;28;20416;-51
2023/07/10 04:58:13;;;;;;;;;;;19.40;99.90;;;;;;5070659;28;19922;-51
2023/07/10 05:00:39;;;;;;;;;;;19.30;99.90;;;;;;5071231;28;20007;-48
2023/07/10 05:03:05;;;;;;;;;;;19.30;99.90;;;;;;5071552;28;19920;-49
2023/07/10 05:05:31;;;;;;;;;;;19.30;99.90;;;;;;5070610;28;19963;-49
2023/07/10 05:07:56;;;;;;;;;;;19.40;99.90;;;;;;5070461;28;19959;-50
2023/07/10 05:10:22;;;;;;;;;;;19.30;99.90;;;;;;5071110;28;19942;-49
2023/07/10 05:12:48;;;;;;;;;;;19.40;99.90;;;;;;5071094;28;19980;-52
2023/07/10 05:15:13;;;;;;;;;;;19.40;99.90;;;;;;5070441;28;19916;-50
2023/07/10 05:17:40;;;;;;;;;;;19.30;99.90;;;;;;5071146;28;19923;-49
2023/07/10 05:20:06;;;;;;;;;;;19.40;99.90;;;;;;5070742;28;19916;-53
2023/07/10 05:22:31;;;;;;;;;;;19.30;99.90;;;;;;5070446;28;20326;-53
2023/07/10 05:24:57;;;;;;;;;;;19.30;99.90;;;;;;5070344;28;20309;-48
2023/07/10 05:27:22;;;;;;;;;;;19.20;99.90;;;;;;5071082;28;20003;-48
2023/07/10 05:29:48;;;;;;;;;;;19.20;99.90;;;;;;5071021;28;19989;-51
2023/07/10 05:32:13;;;;;;;;;;;19.20;99.90;;;;;;5071088;28;19920;-48
2023/07/10 05:34:39;;;;;;;;;;;19.20;99.90;;;;;;5070434;28;20016;-49
2023/07/10 05:37:04;;;;;;;;;;;19.20;99.90;;;;;;5069960;28;19917;-51
2023/07/10 05:39:30;;;;;;;;;;;19.10;99.90;;;;;;5070775;28;20304;-51
2023/07/10 05:41:56;;;;;;;;;;;19.10;99.90;;;;;;5070678;28;19917;-49
2023/07/10 05:44:21;;;;;;;;;;;19.10;99.90;;;;;;5070420;28;20005;-48
2023/07/10 05:46:47;;;;;;;;;;;19.10;99.90;;;;;;5070373;28;19924;-51
2023/07/10 05:49:12;;;;;;;;;;;19.10;99.90;;;;;;5063908;28;19924;-55
2023/07/10 05:51:38;;;;;;;;;;;19.10;99.90;;;;;;5068136;28;19924;-54
2023/07/10 05:54:04;;;;;;;;;;;19.10;99.90;;;;;;5070199;28;20018;-53
2023/07/10 05:56:29;;;;;;;;;;;19.10;99.90;;;;;;5069934;28;19916;-55
2023/07/10 05:58:55;;;;;;;;;;;19.10;99.90;;;;;;5069761;28;20346;-50
2023/07/10 06:01:20;;;;;;;;;;;19.20;99.90;;;;;;5063910;28;19924;-54
2023/07/10 06:03:46;;;;;;;;;;;19.20;99.90;;;;;;5060217;28;19917;-54
2023/07/10 06:06:11;;;;;;;;;;;19.20;99.90;;;;;;5063559;28;20372;-50
2023/07/10 06:08:37;;;;;;;;;;;19.30;99.90;;;;;;5063373;28;19969;-50
2023/07/10 06:11:03;;;;;;;;;;;19.30;99.90;;;;;;5064995;28;19921;-52
2023/07/10 06:13:29;;;;;;;;;;;19.30;99.90;;;;;;5063116;28;19924;-50
2023/07/10 06:15:55;;;;;;;;;;;19.30;99.90;;;;;;5063667;28;20352;-51
2023/07/10 06:18:21;;;;;;;;;;;19.30;99.90;;;;;;5066460;28;20470;-54
2023/07/10 06:20:53;;;;;;;;;;;19.30;99.90;;;;;;5065220;28;19920;-49
2023/07/10 06:23:19;;;;;;;;;;;19.40;99.90;;;;;;5070213;28;20479;-52
2023/07/10 06:25:45;;;;;;;;;;;19.40;99.90;;;;;;5063577;28;20293;-52
2023/07/10 06:28:11;;;;;;;;;;;19.40;99.90;;;;;;5058510;28;20011;-49
2023/07/10 06:30:43;;;;;;;;;;;19.40;99.90;;;;;;5060051;28;19998;-49
2023/07/10 06:33:09;;;;;;;;;;;19.50;99.90;;;;;;5062393;28;19992;-50
2023/07/10 06:35:34;;;;;;;;;;;19.50;99.90;;;;;;5064253;28;20038;-50
2023/07/10 06:38:00;;;;;;;;;;;19.60;99.90;;;;;;5056143;28;19927;-52
2023/07/10 06:40:25;;;;;;;;;;;19.60;99.90;;;;;;5072780;28;19920;-52
2023/07/10 06:42:51;;;;;;;;;;;19.60;99.90;;;;;;5063632;28;19924;-52
2023/07/10 06:45:17;;;;;;;;;;;19.70;99.90;;;;;;5067977;28;20352;-49
2023/07/10 06:47:43;;;;;;;;;;;19.70;99.90;;;;;;5065193;28;19920;-53
2023/07/10 06:50:10;;;;;;;;;;;19.80;99.90;;;;;;5069943;28;19916;-51
2023/07/10 06:52:37;;;;;;;;;;;20.00;99.90;;;;;;5064553;28;19927;-53
2023/07/10 06:55:03;;;;;;;;;;;20.10;99.90;;;;;;5068569;28;19962;-53
2023/07/10 06:57:28;;;;;;;;;;;20.20;99.90;;;;;;5066518;28;19960;-50
2023/07/10 06:59:54;;;;;;;;;;;20.40;99.90;;;;;;5072884;28;19960;-49
2023/07/10 07:02:19;;;;;;;;;;;20.50;99.90;;;;;;5072197;28;19920;-52
2023/07/10 07:04:45;;;;;;;;;;;20.70;99.90;;;;;;5062018;28;19916;-49
2023/07/10 07:07:10;;;;;;;;;;;20.80;99.90;;;;;;5069817;28;19920;-48
2023/07/10 07:09:36;;;;;;;;;;;21.00;99.90;;;;;;5062711;28;20329;-50
2023/07/10 07:12:01;;;;;;;;;;;21.00;99.90;;;;;;5062143;28;19925;-52
2023/07/10 07:14:27;;;;;;;;;;;21.10;99.90;;;;;;5067609;28;19923;-49
2023/07/10 07:16:53;;;;;;;;;;;21.20;99.90;;;;;;5064994;28;19924;-48
2023/07/10 07:19:19;;;;;;;;;;;21.20;99.90;;;;;;5065827;28;19961;-48
2023/07/10 07:21:44;;;;;;;;;;;21.20;99.90;;;;;;5067929;28;20373;-48
2023/07/10 07:24:10;;;;;;;;;;;21.20;99.90;;;;;;5071321;28;20389;-48
2023/07/10 07:26:36;;;;;;;;;;;21.20;99.90;;;;;;5059847;28;20007;-49
2023/07/10 07:29:01;;;;;;;;;;;21.30;99.90;;;;;;5085284;28;19923;-49
2023/07/10 07:31:27;;;;;;;;;;;21.30;99.90;;;;;;5064739;28;20369;-52
2023/07/10 07:33:54;;;;;;;;;;;21.40;99.90;;;;;;5065929;28;20035;-51
2023/07/10 07:36:20;;;;;;;;;;;21.50;99.90;;;;;;5069671;28;20274;-51
2023/07/10 07:38:45;;;;;;;;;;;21.50;99.90;;;;;;5069468;28;19916;-49
2023/07/10 07:41:11;;;;;;;;;;;21.50;99.90;;;;;;5072936;28;19962;-50
2023/07/10 07:43:37;;;;;;;;;;;21.50;99.90;;;;;;5061903;28;19916;-48
2023/07/10 07:46:02;;;;;;;;;;;21.60;99.90;;;;;;5069203;28;19920;-50
2023/07/10 07:48:28;;;;;;;;;;;21.80;99.90;;;;;;5069394;28;19962;-49
2023/07/10 07:51:03;;;;;;;;;;;21.90;99.90;;;;;;5062839;28;19920;-48
2023/07/10 07:53:30;;;;;;;;;;;22.00;99.90;;;;;;5065144;28;20456;-48
2023/07/10 07:55:56;;;;;;;;;;;22.00;99.90;;;;;;5072257;28;19922;-51
2023/07/10 07:58:21;;;;;;;;;;;22.10;99.90;;;;;;5063247;28;19916;-48
2023/07/10 08:00:48;;;;;;;;;;;22.20;99.90;;;;;;5064426;28;19969;-48
2023/07/10 08:03:13;;;;;;;;;;;22.20;99.90;;;;;;5057120;28;20459;-48
2023/07/10 08:05:39;;;;;;;;;;;22.20;99.90;;;;;;5059539;28;19951;-48
2023/07/10 08:08:06;;;;;;;;;;;22.20;99.90;;;;;;5064642;28;19924;-49
2023/07/10 08:10:32;;;;;;;;;;;22.30;99.90;;;;;;5068341;28;20308;-48
2023/07/10 08:12:58;;;;;;;;;;;22.30;99.90;;;;;;5062418;28;19924;-54
2023/07/10 08:15:23;;;;;;;;;;;22.40;99.90;;;;;;5062414;28;19920;-52
2023/07/10 08:17:48;;;;;;;;;;;22.40;99.90;;;;;;5071979;28;19942;-52
2023/07/10 08:20:14;;;;;;;;;;;22.50;99.90;;;;;;5066569;28;19970;-51
2023/07/10 08:22:40;;;;;;;;;;;22.60;99.90;;;;;;5068646;28;19924;-48
2023/07/10 08:25:06;;;;;;;;;;;22.70;99.90;;;;;;5070275;28;19966;-55
2023/07/10 08:27:51;;;;;;;;;;;22.60;99.90;;;;;;5066780;28;20293;-49
2023/07/10 08:30:16;;;;;;;;;;;22.60;99.90;;;;;;5068282;28;20321;-52
2023/07/10 08:32:42;;;;;;;;;;;22.70;99.90;;;;;;5067177;28;19935;-52
2023/07/10 08:35:08;;;;;;;;;;;22.70;99.90;;;;;;5068647;28;19923;-49
2023/07/10 08:37:36;;;;;;;;;;;22.80;99.90;;;;;;5067276;28;20233;-49
2023/07/10 08:40:03;;;;;;;;;;;22.90;99.90;;;;;;5067801;28;19999;-55
2023/07/10 08:42:32;;;;;;;;;;;22.90;99.90;;;;;;5067105;28;19920;-51
2023/07/10 08:45:00;;;;;;;;;;;22.90;99.90;;;;;;5072126;28;19924;-52
2023/07/10 08:47:46;;;;;;;;;;;23.00;99.90;;;;;;5048305;28;19926;-54
2023/07/10 08:50:18;;;;;;;;;;;23.10;99.90;;;;;;5045233;28;20007;-48
2023/07/10 08:53:10;;;;;;;;;;;23.20;99.90;;;;;;5046802;28;19921;-49
2023/07/10 08:55:41;;;;;;;;;;;23.20;99.90;;;;;;5042229;28;19959;-54
2023/07/10 08:58:12;;;;;;;;;;;23.20;99.90;;;;;;5045677;28;20413;-50
2023/07/10 09:00:42;;;;;;;;;;;23.20;99.90;;;;;;5039061;28;20059;-53
2023/07/10 09:03:17;;;;;;;;;;;23.30;99.90;;;;;;5048415;28;19920;-52
2023/07/10 09:05:46;;;;;;;;;;;23.40;99.90;;;;;;5051405;28;20348;-54
2023/07/10 09:08:15;;;;;;;;;;;23.50;99.90;;;;;;5045218;28;19917;-52
2023/07/10 09:10:49;;;;;;;;;;;23.60;99.90;;;;;;5027002;28;19921;-51
2023/07/10 09:13:20;;;;;;;;;;;23.70;99.90;;;;;;5045742;28;19925;-52
2023/07/10 09:15:54;;;;;;;;;;;23.80;99.90;;;;;;5027424;28;19967;-52
2023/07/10 09:18:22;;;;;;;;;;;23.80;99.90;;;;;;5056988;28;19916;-53
2023/07/10 09:20:49;;;;;;;;;;;23.70;99.90;;;;;;5066113;28;20187;-50
2023/07/10 09:23:19;;;;;;;;;;;23.80;99.90;;;;;;5065554;28;19928;-51
2023/07/10 09:25:52;;;;;;;;;;;23.90;99.90;;;;;;5066945;28;19924;-50
2023/07/10 09:28:17;;;;;;;;;;;24.00;99.90;;;;;;5068753;28;19916;-54
2023/07/10 09:31:09;;;;;;;;;;;24.10;99.90;;;;;;5067152;28;20296;-52
2023/07/10 09:33:50;;;;;;;;;;;24.00;99.90;;;;;;5035657;28;20381;-52
2023/07/10 09:36:17;;;;;;;;;;;24.00;99.90;;;;;;5067403;28;20388;-53
2023/07/10 09:38:44;;;;;;;;;;;24.10;99.90;;;;;;5069377;28;19967;-53
2023/07/10 09:41:21;;;;;;;;;;;24.30;99.90;;;;;;5070516;28;19927;-54
2023/07/10 09:43:54;;;;;;;;;;;24.40;99.90;;;;;;5065418;28;19923;-54
2023/07/10 09:46:23;;;;;;;;;;;24.50;99.90;;;;;;5067056;28;19923;-54
2023/07/10 09:48:51;;;;;;;;;;;24.60;99.90;;;;;;5048531;28;19923;-50
2023/07/10 09:51:19;;;;;;;;;;;24.70;99.90;;;;;;5068340;28;19920;-51
2023/07/10 09:53:52;;;;;;;;;;;24.70;99.90;;;;;;5068159;28;19916;-54
2023/07/10 09:56:25;;;;;;;;;;;24.90;99.90;;;;;;5064593;28;19917;-52
2023/07/10 09:58:55;;;;;;;;;;;24.90;99.80;;;;;;5063690;28;20405;-54
2023/07/10 10:01:38;;;;;;;;;;;24.90;99.60;;;;;;5062805;28;19958;-56
2023/07/10 10:04:03;;;;;;;;;;;25.00;99.60;;;;;;5063234;28;19947;-51
2023/07/10 10:06:30;;;;;;;;;;;25.10;99.60;;;;;;5064320;28;19916;-56
2023/07/10 10:08:56;;;;;;;;;;;25.20;98.80;;;;;;5061523;28;20455;-53
2023/07/10 10:11:34;;;;;;;;;;;25.20;98.50;;;;;;5059567;28;20123;-54
2023/07/10 10:14:02;;;;;;;;;;;25.20;98.40;;;;;;5064318;28;20242;-55
2023/07/10 10:16:34;;;;;;;;;;;25.30;98.90;;;;;;5061929;28;19921;-53
2023/07/10 10:19:06;;;;;;;;;;;25.30;97.90;;;;;;5065750;28;20094;-55
2023/07/10 10:21:32;;;;;;;;;;;25.50;98.70;;;;;;5065472;28;19924;-53
2023/07/10 10:24:00;;;;;;;;;;;25.50;97.50;;;;;;5064826;28;19916;-53
2023/07/10 10:26:35;;;;;;;;;;;25.50;97.60;;;;;;5059569;28;20345;-54
2023/07/10 10:29:19;;;;;;;;;;;25.50;97.90;;;;;;5056951;28;19928;-54
2023/07/10 10:31:54;;;;;;;;;;;25.50;97.70;;;;;;5062620;28;20346;-55
2023/07/10 10:34:48;;;;;;;;;;;25.50;96.80;;;;;;5062826;28;20202;-51
2023/07/10 10:37:17;;;;;;;;;;;25.50;96.80;;;;;;5052745;28;20033;-53
2023/07/10 10:39:46;;;;;;;;;;;25.40;96.50;;;;;;5063100;28;19916;-53
2023/07/10 10:42:12;;;;;;;;;;;25.50;97.10;;;;;;5064293;28;19917;-55
2023/07/10 10:44:41;;;;;;;;;;;25.70;96.90;;;;;;5064296;28;19923;-53
2023/07/10 10:47:18;;;;;;;;;;;25.80;96.60;;;;;;5062483;28;19970;-56
2023/07/10 10:49:59;;;;;;;;;;;26.00;97.10;;;;;;5062090;28;19916;-54
2023/07/10 10:52:32;;;;;;;;;;;26.00;95.00;;;;;;5065109;28;20035;-51
2023/07/10 10:55:16;;;;;;;;;;;26.00;95.40;;;;;;5059945;28;19922;-54
2023/07/10 10:57:47;;;;;;;;;;;25.90;95.30;;;;;;5064045;28;20381;-55
2023/07/10 11:00:27;;;;;;;;;;;26.00;95.30;;;;;;5047790;28;19920;-56
2023/07/10 11:03:11;;;;;;;;;;;25.90;95.30;;;;;;5060358;28;19988;-55
2023/07/10 11:05:42;;;;;;;;;;;25.90;95.80;;;;;;5066661;28;20310;-54
2023/07/10 11:08:27;;;;;;;;;;;25.90;95.30;;;;;;5062634;28;20126;-55
2023/07/10 11:10:56;;;;;;;;;;;26.00;95.20;;;;;;5066315;28;19927;-53
2023/07/10 11:13:29;;;;;;;;;;;26.00;95.30;;;;;;5063434;28;19932;-56
2023/07/10 11:15:55;;;;;;;;;;;25.80;95.50;;;;;;5062581;28;19977;-52
2023/07/10 11:18:21;;;;;;;;;;;25.70;95.10;;;;;;5065682;28;19916;-50
2023/07/10 11:20:47;;;;;;;;;;;25.60;95.20;;;;;;5065083;28;20303;-54
2023/07/10 11:23:51;;;;;;;;;;;25.60;95.50;;;;;;5071255;28;19927;-52
2023/07/10 11:26:20;;;;;;;;;;;25.50;95.50;;;;;;4988331;28;20552;-51
2023/07/10 11:29:00;;;;;;;;;;;25.50;96.00;;;;;;5055174;28;19924;-54
2023/07/10 11:31:35;;;;;;;;;;;25.70;96.50;;;;;;5067774;28;20154;-51
2023/07/10 11:34:07;;;;;;;;;;;26.00;96.00;;;;;;5069121;28;19924;-53
2023/07/10 11:36:32;;;;;;;;;;;26.10;95.80;;;;;;5076267;28;19916;-52
2023/07/10 11:39:08;;;;;;;;;;;26.10;95.50;;;;;;5067682;28;19930;-51
2023/07/10 11:41:57;;;;;;;;;;;26.20;94.70;;;;;;5069394;28;20445;-53
2023/07/10 11:44:30;;;;;;;;;;;26.20;94.60;;;;;;5068797;28;19916;-52
2023/07/10 11:47:02;;;;;;;;;;;26.30;94.50;;;;;;5066152;28;19916;-55
2023/07/10 11:49:27;;;;;;;;;;;26.30;94.20;;;;;;5077725;28;19917;-52
2023/07/10 11:52:09;;;;;;;;;;;26.30;93.60;;;;;;5061669;28;19929;-54
2023/07/10 11:54:58;;;;;;;;;;;26.30;94.00;;;;;;5067272;28;20397;-53
2023/07/10 11:57:26;;;;;;;;;;;26.40;93.40;;;;;;5069158;28;19999;-56
2023/07/10 11:59:56;;;;;;;;;;;26.40;93.00;;;;;;5071000;28;20011;-55
2023/07/10 12:02:41;;;;;;;;;;;26.40;92.90;;;;;;5070307;28;19924;-55
2023/07/10 12:05:15;;;;;;;;;;;26.30;93.00;;;;;;5071868;28;20351;-55
2023/07/10 12:07:50;;;;;;;;;;;26.20;92.30;;;;;;5072152;28;19920;-55
2023/07/10 12:10:16;;;;;;;;;;;26.10;92.50;;;;;;5070236;28;19926;-56
2023/07/10 12:12:41;;;;;;;;;;;25.90;92.00;;;;;;5066816;28;19920;-54
2023/07/10 12:15:08;;;;;;;;;;;25.80;91.80;;;;;;5064793;28;20204;-55
2023/07/10 12:17:36;;;;;;;;;;;25.70;92.20;;;;;;5069244;28;20421;-56
2023/07/10 12:20:02;;;;;;;;;;;25.70;92.70;;;;;;5068283;28;20101;-54
2023/07/10 12:22:32;;;;;;;;;;;25.70;92.70;;;;;;5069848;28;19920;-55
2023/07/10 12:25:02;;;;;;;;;;;25.70;93.50;;;;;;5067137;28;20471;-54
2023/07/10 12:27:35;;;;;;;;;;;25.70;93.00;;;;;;5070814;28;19927;-55
2023/07/10 12:30:01;;;;;;;;;;;25.70;93.00;;;;;;5065807;28;20281;-56
2023/07/10 12:32:30;;;;;;;;;;;25.70;92.90;;;;;;5070452;28;19924;-54
2023/07/10 12:34:56;;;;;;;;;;;25.70;92.50;;;;;;5068763;28;19923;-55
2023/07/10 12:37:22;;;;;;;;;;;25.70;93.00;;;;;;5067594;28;19916;-52
2023/07/10 12:39:49;;;;;;;;;;;25.60;92.70;;;;;;5065430;28;20375;-55
2023/07/10 12:42:36;;;;;;;;;;;25.60;92.70;;;;;;5064360;28;19916;-53
2023/07/10 12:45:05;;;;;;;;;;;25.60;92.40;;;;;;5066249;28;19923;-56
2023/07/10 12:47:32;;;;;;;;;;;25.50;93.00;;;;;;5068484;28;19947;-55
2023/07/10 12:49:58;;;;;;;;;;;25.50;91.70;;;;;;5069505;28;19950;-55
2023/07/10 12:52:27;;;;;;;;;;;25.60;92.70;;;;;;5068869;28;19920;-54
2023/07/10 12:54:53;;;;;;;;;;;25.70;91.80;;;;;;5069304;28;19927;-56
2023/07/10 12:57:21;;;;;;;;;;;25.70;91.80;;;;;;5069168;28;19946;-51
2023/07/10 12:59:47;;;;;;;;;;;25.80;91.40;;;;;;5071696;28;20254;-50
2023/07/10 13:02:16;;;;;;;;;;;25.90;90.60;;;;;;5068676;28;19931;-52
2023/07/10 13:04:46;;;;;;;;;;;25.90;91.20;;;;;;5070829;28;19915;-51
2023/07/10 13:07:15;;;;;;;;;;;26.00;89.70;;;;;;5067235;28;19994;-53
2023/07/10 13:09:40;;;;;;;;;;;26.00;88.60;;;;;;5068565;28;19923;-51
2023/07/10 13:12:14;;;;;;;;;;;26.00;86.70;;;;;;5065668;28;19920;-52
2023/07/10 13:14:40;;;;;;;;;;;26.00;84.10;;;;;;5065842;28;19916;-53
2023/07/10 13:17:09;;;;;;;;;;;26.00;87.30;;;;;;5067512;28;19916;-55
2023/07/10 13:19:36;;;;;;;;;;;26.10;85.60;;;;;;5068124;28;19947;-55
2023/07/10 13:22:02;;;;;;;;;;;26.20;84.90;;;;;;5085072;28;20405;-53
2023/07/10 13:24:27;;;;;;;;;;;26.30;84.60;;;;;;5068678;28;19920;-51
2023/07/10 13:26:53;;;;;;;;;;;26.40;84.80;;;;;;5068507;28;19924;-55
2023/07/10 13:29:19;;;;;;;;;;;26.50;82.80;;;;;;5070399;28;19920;-51
2023/07/10 13:31:46;;;;;;;;;;;26.50;84.40;;;;;;5067560;28;19970;-52
2023/07/10 13:34:12;;;;;;;;;;;26.70;83.90;;;;;;5068548;28;20018;-52
2023/07/10 13:36:38;;;;;;;;;;;26.70;84.10;;;;;;5066009;28;20435;-50
2023/07/10 13:39:09;;;;;;;;;;;26.80;81.30;;;;;;5066462;28;19920;-54
2023/07/10 13:41:35;;;;;;;;;;;26.80;83.40;;;;;;5065404;28;19924;-50
2023/07/10 13:44:00;;;;;;;;;;;26.70;81.60;;;;;;5062836;28;19916;-53
2023/07/10 13:46:28;;;;;;;;;;;26.80;81.60;;;;;;5066229;28;19958;-50
2023/07/10 13:48:55;;;;;;;;;;;26.90;81.30;;;;;;5066037;28;19920;-50
2023/07/10 13:51:21;;;;;;;;;;;26.80;78.10;;;;;;5068542;28;20060;-55
2023/07/10 13:53:48;;;;;;;;;;;26.70;79.50;;;;;;5060976;28;19955;-53
2023/07/10 13:56:14;;;;;;;;;;;26.80;79.90;;;;;;5065429;28;19924;-50
2023/07/10 13:58:40;;;;;;;;;;;26.70;81.00;;;;;;5065661;28;19916;-50
2023/07/10 14:01:08;;;;;;;;;;;26.70;78.90;;;;;;5066749;28;19970;-54
2023/07/10 14:03:35;;;;;;;;;;;26.70;75.40;;;;;;5058848;28;20272;-51
2023/07/10 14:06:01;;;;;;;;;;;26.60;78.20;;;;;;5061804;28;19923;-54
2023/07/10 14:08:28;;;;;;;;;;;26.60;78.30;;;;;;5068488;28;19917;-50
2023/07/10 14:10:55;;;;;;;;;;;26.50;77.00;;;;;;5058858;28;20342;-51
2023/07/10 14:13:20;;;;;;;;;;;26.50;76.90;;;;;;5065573;28;19925;-53
2023/07/10 14:15:51;;;;;;;;;;;26.60;78.10;;;;;;5067722;28;19924;-52
2023/07/10 14:18:21;;;;;;;;;;;26.60;77.30;;;;;;5067393;28;19922;-51
2023/07/10 14:20:46;;;;;;;;;;;26.80;76.70;;;;;;5068063;28;19916;-52
2023/07/10 14:23:13;;;;;;;;;;;26.80;75.90;;;;;;5066881;28;19924;-53